sensor_id;sensor_type;location;lat;lon;timestamp;pressure;altitude;pressure_sealevel;temperature;humidity
11345;BME280;5727;42.600;23.028;2024-02-23T00:01:08;93460.69;;;8.61;100.00
11345;BME280;5727;42.600;23.028;2024-02-23T00:03:37;93454.25;;;8.58;100.00
11345;BME280;5727;42.600;23.028;2024-02-23T00:06:04;93461.53;;;8.53;100.00
11345;BME280;5727;42.600;23.028;2024-02-23T00:08:31;93450.09;;;8.57;100.00
11345;BME280;5727;42.600;23.028;2024-02-23T00:10:59;93447.63;;;8.61;100.00
11345;BME280;5727;42.600;23.028;2024-02-23T00:13:26;93450.56;;;8.59;100.00
11345;BME280;5727;42.600;23.028;2024-02-23T00:15:53;93448.91;;;8.55;100.00
11345;BME280;5727;42.600;23.028;2024-02-23T00:18:20;93448.91;;;8.55;100.00
11345;BME280;5727;42.600;23.028;2024-02-23T00:20:47;93449.78;;;8.59;100.00
11345;BME280;5727;42.600;23.028;2024-02-23T00:23:14;93449.50;;;8.60;100.00
11345;BME280;5727;42.600;23.028;2024-02-23T00:25:41;93445.47;;;8.63;100.00
11345;BME280;5727;42.600;23.028;2024-02-23T00:28:09;93448.22;;;8.66;100.00
11345;BME280;5727;42.600;23.028;2024-02-23T00:30:36;93443.28;;;8.65;100.00
11345;BME280;5727;42.600;23.028;2024-02-23T00:33:04;93441.22;;;8.58;100.00
11345;BME280;5727;42.600;23.028;2024-02-23T00:35:30;93435.88;;;8.55;100.00
11345;BME280;5727;42.600;23.028;2024-02-23T00:37:57;93443.81;;;8.58;100.00
11345;BME280;5727;42.600;23.028;2024-02-23T00:40:25;93430.00;;;8.58;100.00
11345;BME280;5727;42.600;23.028;2024-02-23T00:42:51;93431.50;;;8.59;100.00
11345;BME280;5727;42.600;23.028;2024-02-23T00:45:20;93432.47;;;8.54;100.00
11345;BME280;5727;42.600;23.028;2024-02-23T00:47:47;93432.47;;;8.54;100.00
11345;BME280;5727;42.600;23.028;2024-02-23T00:50:14;93430.94;;;8.53;100.00
11345;BME280;5727;42.600;23.028;2024-02-23T00:52:41;93425.09;;;8.56;100.00
11345;BME280;5727;42.600;23.028;2024-02-23T00:55:08;93431.59;;;8.50;100.00
11345;BME280;5727;42.600;23.028;2024-02-23T00:57:35;93423.56;;;8.55;100.00
11345;BME280;5727;42.600;23.028;2024-02-23T01:00:03;93424.41;;;8.47;100.00
11345;BME280;5727;42.600;23.028;2024-02-23T01:02:32;93431.06;;;8.36;100.00
11345;BME280;5727;42.600;23.028;2024-02-23T01:04:59;93428.28;;;8.41;100.00
11345;BME280;5727;42.600;23.028;2024-02-23T01:07:26;93423.06;;;8.41;100.00
11345;BME280;5727;42.600;23.028;2024-02-23T01:09:53;93426.75;;;8.40;100.00
11345;BME280;5727;42.600;23.028;2024-02-23T01:12:20;93425.59;;;8.29;100.00
11345;BME280;5727;42.600;23.028;2024-02-23T01:14:47;93418.34;;;8.35;100.00
11345;BME280;5727;42.600;23.028;2024-02-23T01:17:14;93410.63;;;8.38;100.00
11345;BME280;5727;42.600;23.028;2024-02-23T01:19:43;93407.13;;;8.34;100.00
11345;BME280;5727;42.600;23.028;2024-02-23T01:22:10;93417.75;;;8.29;100.00
11345;BME280;5727;42.600;23.028;2024-02-23T01:24:37;93420.38;;;8.29;100.00
11345;BME280;5727;42.600;23.028;2024-02-23T01:27:04;93412.22;;;8.30;100.00
11345;BME280;5727;42.600;23.028;2024-02-23T01:29:31;93403.94;;;8.28;100.00
11345;BME280;5727;42.600;23.028;2024-02-23T01:31:58;93405.06;;;8.19;100.00
11345;BME280;5727;42.600;23.028;2024-02-23T01:34:25;93404.53;;;8.05;100.00
11345;BME280;5727;42.600;23.028;2024-02-23T01:36:53;93393.91;;;8.10;100.00
11345;BME280;5727;42.600;23.028;2024-02-23T01:39:20;93392.06;;;8.10;100.00
11345;BME280;5727;42.600;23.028;2024-02-23T01:41:47;93388.88;;;8.05;100.00
11345;BME280;5727;42.600;23.028;2024-02-23T01:44:14;93382.47;;;8.02;100.00
11345;BME280;5727;42.600;23.028;2024-02-23T01:46:43;93384.28;;;8.02;100.00
11345;BME280;5727;42.600;23.028;2024-02-23T01:49:10;93376.47;;;8.02;100.00
11345;BME280;5727;42.600;23.028;2024-02-23T01:51:37;93368.63;;;8.02;100.00
11345;BME280;5727;42.600;23.028;2024-02-23T01:54:05;93385.84;;;8.03;100.00
11345;BME280;5727;42.600;23.028;2024-02-23T01:56:32;93376.47;;;8.02;100.00
11345;BME280;5727;42.600;23.028;2024-02-23T01:59:02;93377.25;;;8.02;100.00
11345;BME280;5727;42.600;23.028;2024-02-23T02:01:30;93377.94;;;7.91;100.00
11345;BME280;5727;42.600;23.028;2024-02-23T02:03:57;93384.78;;;7.95;100.00
11345;BME280;5727;42.600;23.028;2024-02-23T02:06:24;93375.75;;;7.93;100.00
11345;BME280;5727;42.600;23.028;2024-02-23T02:08:51;93369.00;;;7.92;100.00
11345;BME280;5727;42.600;23.028;2024-02-23T02:11:20;93367.94;;;7.93;100.00
11345;BME280;5727;42.600;23.028;2024-02-23T02:13:47;93366.22;;;7.97;100.00
11345;BME280;5727;42.600;23.028;2024-02-23T02:16:14;93360.69;;;7.98;100.00
11345;BME280;5727;42.600;23.028;2024-02-23T02:18:41;93355.91;;;8.00;100.00
11345;BME280;5727;42.600;23.028;2024-02-23T02:21:09;93368.84;;;7.97;100.00
11345;BME280;5727;42.600;23.028;2024-02-23T02:23:36;93358.41;;;7.97;100.00
11345;BME280;5727;42.600;23.028;2024-02-23T02:26:04;93361.59;;;8.02;100.00
11345;BME280;5727;42.600;23.028;2024-02-23T02:28:32;93354.38;;;7.99;100.00
11345;BME280;5727;42.600;23.028;2024-02-23T02:31:00;93356.81;;;8.04;100.00
11345;BME280;5727;42.600;23.028;2024-02-23T02:33:27;93361.25;;;8.04;100.00
11345;BME280;5727;42.600;23.028;2024-02-23T02:35:53;93351.94;;;8.03;100.00
11345;BME280;5727;42.600;23.028;2024-02-23T02:38:20;93363.41;;;8.02;100.00
11345;BME280;5727;42.600;23.028;2024-02-23T02:40:47;93350.19;;;8.07;100.00
11345;BME280;5727;42.600;23.028;2024-02-23T02:43:14;93360.63;;;8.07;100.00
11345;BME280;5727;42.600;23.028;2024-02-23T02:45:43;93360.63;;;8.07;100.00
11345;BME280;5727;42.600;23.028;2024-02-23T02:48:11;93355.91;;;8.00;100.00
11345;BME280;5727;42.600;23.028;2024-02-23T02:50:38;93354.81;;;8.01;100.00
11345;BME280;5727;42.600;23.028;2024-02-23T02:53:05;93358.22;;;8.02;100.00
11345;BME280;5727;42.600;23.028;2024-02-23T02:55:32;93354.91;;;7.93;100.00
11345;BME280;5727;42.600;23.028;2024-02-23T02:57:59;93358.69;;;7.95;100.00
11345;BME280;5727;42.600;23.028;2024-02-23T03:00:26;93363.78;;;7.92;100.00
11345;BME280;5727;42.600;23.028;2024-02-23T03:02:54;93367.50;;;7.91;100.00
11345;BME280;5727;42.600;23.028;2024-02-23T03:05:21;93365.34;;;7.93;100.00
11345;BME280;5727;42.600;23.028;2024-02-23T03:07:48;93369.13;;;7.95;100.00
11345;BME280;5727;42.600;23.028;2024-02-23T03:10:15;93366.09;;;7.93;100.00
11345;BME280;5727;42.600;23.028;2024-02-23T03:12:42;93363.03;;;7.91;100.00
11345;BME280;5727;42.600;23.028;2024-02-23T03:15:09;93360.25;;;7.96;100.00
11345;BME280;5727;42.600;23.028;2024-02-23T03:17:36;93366.84;;;7.94;100.00
11345;BME280;5727;42.600;23.028;2024-02-23T03:20:06;93367.75;;;7.98;100.00
11345;BME280;5727;42.600;23.028;2024-02-23T03:22:36;93365.72;;;8.03;100.00
11345;BME280;5727;42.600;23.028;2024-02-23T03:25:04;93354.38;;;7.99;100.00
11345;BME280;5727;42.600;23.028;2024-02-23T03:27:34;93365.00;;;7.94;100.00
11345;BME280;5727;42.600;23.028;2024-02-23T03:30:02;93358.41;;;7.97;100.00
11345;BME280;5727;42.600;23.028;2024-02-23T03:32:30;93366.34;;;8.00;100.00
11345;BME280;5727;42.600;23.028;2024-02-23T03:35:02;93365.25;;;8.01;100.00
11345;BME280;5727;42.600;23.028;2024-02-23T03:37:31;93360.16;;;8.05;100.00
11345;BME280;5727;42.600;23.028;2024-02-23T03:39:58;93357.75;;;8.00;100.00
11345;BME280;5727;42.600;23.028;2024-02-23T03:42:26;93359.31;;;8.01;100.00
11345;BME280;5727;42.600;23.028;2024-02-23T03:44:53;93363.09;;;8.03;100.00
11345;BME280;5727;42.600;23.028;2024-02-23T03:47:20;93354.09;;;8.01;100.00
11345;BME280;5727;42.600;23.028;2024-02-23T03:49:47;93359.03;;;7.94;100.00
11345;BME280;5727;42.600;23.028;2024-02-23T03:52:14;93358.09;;;7.98;100.00
11345;BME280;5727;42.600;23.028;2024-02-23T03:54:42;93371.44;;;7.97;100.00
11345;BME280;5727;42.600;23.028;2024-02-23T03:57:09;93362.88;;;7.88;100.00
11345;BME280;5727;42.600;23.028;2024-02-23T03:59:36;93364.13;;;7.90;100.00
11345;BME280;5727;42.600;23.028;2024-02-23T04:02:04;93369.66;;;7.89;100.00
11345;BME280;5727;42.600;23.028;2024-02-23T04:04:31;93380.09;;;7.89;100.00
11345;BME280;5727;42.600;23.028;2024-02-23T04:06:58;93371.50;;;7.88;100.00
11345;BME280;5727;42.600;23.028;2024-02-23T04:09:25;93377.59;;;7.92;100.00
11345;BME280;5727;42.600;23.028;2024-02-23T04:11:53;93377.94;;;7.91;100.00
11345;BME280;5727;42.600;23.028;2024-02-23T04:14:20;93374.41;;;7.87;100.00
11345;BME280;5727;42.600;23.028;2024-02-23T04:16:47;93372.72;;;7.91;100.00
11345;BME280;5727;42.600;23.028;2024-02-23T04:19:14;93372.06;;;7.94;100.00
11345;BME280;5727;42.600;23.028;2024-02-23T04:21:41;93368.72;;;7.93;100.00
11345;BME280;5727;42.600;23.028;2024-02-23T04:24:08;93366.41;;;7.92;100.00
11345;BME280;5727;42.600;23.028;2024-02-23T04:26:35;93356.19;;;7.78;100.00
11345;BME280;5727;42.600;23.028;2024-02-23T04:29:03;93358.34;;;7.76;100.00
11345;BME280;5727;42.600;23.028;2024-02-23T04:31:30;93355.16;;;7.71;100.00
11345;BME280;5727;42.600;23.028;2024-02-23T04:33:57;93366.19;;;7.76;100.00
11345;BME280;5727;42.600;23.028;2024-02-23T04:36:24;93357.47;;;7.72;100.00
11345;BME280;5727;42.600;23.028;2024-02-23T04:38:51;93357.03;;;7.70;100.00
11345;BME280;5727;42.600;23.028;2024-02-23T04:41:19;93359.78;;;7.74;100.00
11345;BME280;5727;42.600;23.028;2024-02-23T04:43:47;93351.63;;;7.75;100.00
11345;BME280;5727;42.600;23.028;2024-02-23T04:46:16;93367.31;;;7.67;100.00
11345;BME280;5727;42.600;23.028;2024-02-23T04:48:43;93365.16;;;7.69;100.00
11345;BME280;5727;42.600;23.028;2024-02-23T04:51:10;93360.75;;;7.61;100.00
11345;BME280;5727;42.600;23.028;2024-02-23T04:53:37;93361.84;;;7.60;100.00
11345;BME280;5727;42.600;23.028;2024-02-23T04:56:04;93358.75;;;7.66;100.00
11345;BME280;5727;42.600;23.028;2024-02-23T04:58:31;93360.75;;;7.61;100.00
11345;BME280;5727;42.600;23.028;2024-02-23T05:00:58;93366.13;;;7.64;100.00
11345;BME280;5727;42.600;23.028;2024-02-23T05:03:26;93371.78;;;7.66;100.00
11345;BME280;5727;42.600;23.028;2024-02-23T05:05:53;93376.47;;;7.73;100.00
11345;BME280;5727;42.600;23.028;2024-02-23T05:08:20;93376.47;;;7.73;100.00
11345;BME280;5727;42.600;23.028;2024-02-23T05:10:49;93374.97;;;7.72;100.00
11345;BME280;5727;42.600;23.028;2024-02-23T05:13:16;93378.50;;;7.67;100.00
11345;BME280;5727;42.600;23.028;2024-02-23T05:15:43;93382.22;;;7.66;100.00
11345;BME280;5727;42.600;23.028;2024-02-23T05:18:10;93375.13;;;7.67;100.00
11345;BME280;5727;42.600;23.028;2024-02-23T05:20:39;93378.03;;;7.74;100.00
11345;BME280;5727;42.600;23.028;2024-02-23T05:23:06;93381.56;;;7.69;100.00
11345;BME280;5727;42.600;23.028;2024-02-23T05:25:33;93385.84;;;7.74;100.00
11345;BME280;5727;42.600;23.028;2024-02-23T05:27:59;93380.31;;;7.75;100.00
11345;BME280;5727;42.600;23.028;2024-02-23T05:30:27;93372.28;;;7.80;100.00
11345;BME280;5727;42.600;23.028;2024-02-23T05:32:56;93372.28;;;7.80;100.00
11345;BME280;5727;42.600;23.028;2024-02-23T05:35:23;93381.81;;;7.76;100.00
11345;BME280;5727;42.600;23.028;2024-02-23T05:37:53;93372.16;;;7.77;100.00
11345;BME280;5727;42.600;23.028;2024-02-23T05:40:20;93372.69;;;7.70;100.00
11345;BME280;5727;42.600;23.028;2024-02-23T05:42:47;93378.94;;;7.78;100.00
11345;BME280;5727;42.600;23.028;2024-02-23T05:45:14;93381.09;;;7.76;100.00
11345;BME280;5727;42.600;23.028;2024-02-23T05:47:41;93370.00;;;7.79;100.00
11345;BME280;5727;42.600;23.028;2024-02-23T05:50:09;93377.56;;;7.72;100.00
11345;BME280;5727;42.600;23.028;2024-02-23T05:52:36;93380.56;;;7.82;100.00
11345;BME280;5727;42.600;23.028;2024-02-23T05:55:04;93386.28;;;7.76;100.00
11345;BME280;5727;42.600;23.028;2024-02-23T05:57:31;93380.25;;;7.84;100.00
11345;BME280;5727;42.600;23.028;2024-02-23T05:59:58;93389.63;;;7.85;100.00
11345;BME280;5727;42.600;23.028;2024-02-23T06:02:25;93392.03;;;7.90;100.00
11345;BME280;5727;42.600;23.028;2024-02-23T06:04:52;93387.72;;;7.94;100.00
11345;BME280;5727;42.600;23.028;2024-02-23T06:07:19;93399.50;;;8.00;100.00
11345;BME280;5727;42.600;23.028;2024-02-23T06:09:52;93392.56;;;8.04;100.00
11345;BME280;5727;42.600;23.028;2024-02-23T06:12:21;93394.09;;;8.05;100.00
11345;BME280;5727;42.600;23.028;2024-02-23T06:14:48;93405.41;;;8.09;100.00
11345;BME280;5727;42.600;23.028;2024-02-23T06:17:15;93393.28;;;8.13;100.00
11345;BME280;5727;42.600;23.028;2024-02-23T06:19:42;93407.22;;;8.17;100.00
11345;BME280;5727;42.600;23.028;2024-02-23T06:22:09;93406.72;;;8.23;100.00
11345;BME280;5727;42.600;23.028;2024-02-23T06:24:37;93401.00;;;8.30;100.00
11345;BME280;5727;42.600;23.028;2024-02-23T06:27:04;93399.75;;;8.36;100.00
11345;BME280;5727;42.600;23.028;2024-02-23T06:29:33;93405.22;;;8.43;100.00
11345;BME280;5727;42.600;23.028;2024-02-23T06:32:00;93399.56;;;8.41;100.00
11345;BME280;5727;42.600;23.028;2024-02-23T06:34:28;93403.94;;;8.49;100.00
11345;BME280;5727;42.600;23.028;2024-02-23T06:36:55;93409.44;;;8.56;100.00
11345;BME280;5727;42.600;23.028;2024-02-23T06:39:22;93406.28;;;8.63;100.00
11345;BME280;5727;42.600;23.028;2024-02-23T06:41:49;93419.63;;;8.70;100.00
11345;BME280;5727;42.600;23.028;2024-02-23T06:44:16;93420.19;;;8.75;100.00
11345;BME280;5727;42.600;23.028;2024-02-23T06:46:44;93416.34;;;8.73;100.00
11345;BME280;5727;42.600;23.028;2024-02-23T06:49:11;93413.97;;;8.80;100.00
11345;BME280;5727;42.600;23.028;2024-02-23T06:51:38;93420.41;;;8.82;100.00
11345;BME280;5727;42.600;23.028;2024-02-23T06:54:06;93412.41;;;8.87;100.00
11345;BME280;5727;42.600;23.028;2024-02-23T06:56:33;93413.06;;;8.96;100.00
11345;BME280;5727;42.600;23.028;2024-02-23T06:59:02;93410.34;;;8.93;100.00
11345;BME280;5727;42.600;23.028;2024-02-23T07:01:29;93409.63;;;9.04;100.00
11345;BME280;5727;42.600;23.028;2024-02-23T07:03:58;93412.34;;;9.08;100.00
11345;BME280;5727;42.600;23.028;2024-02-23T07:06:25;93403.34;;;9.17;100.00
11345;BME280;5727;42.600;23.028;2024-02-23T07:08:54;93409.34;;;9.30;100.00
11345;BME280;5727;42.600;23.028;2024-02-23T07:11:21;93411.53;;;9.40;100.00
11345;BME280;5727;42.600;23.028;2024-02-23T07:13:48;93403.91;;;9.47;100.00
11345;BME280;5727;42.600;23.028;2024-02-23T07:16:15;93419.19;;;9.57;100.00
11345;BME280;5727;42.600;23.028;2024-02-23T07:18:42;93409.28;;;9.63;100.00
11345;BME280;5727;42.600;23.028;2024-02-23T07:21:10;93411.25;;;9.78;100.00
11345;BME280;5727;42.600;23.028;2024-02-23T07:23:37;93411.47;;;9.85;100.00
11345;BME280;5727;42.600;23.028;2024-02-23T07:26:04;93410.38;;;9.86;100.00
11345;BME280;5727;42.600;23.028;2024-02-23T07:28:31;93408.09;;;9.96;100.00
11345;BME280;5727;42.600;23.028;2024-02-23T07:30:58;93406.47;;;10.04;100.00
11345;BME280;5727;42.600;23.028;2024-02-23T07:33:25;93410.28;;;10.06;100.00
11345;BME280;5727;42.600;23.028;2024-02-23T07:35:52;93416.69;;;10.09;100.00
11345;BME280;5727;42.600;23.028;2024-02-23T07:38:20;93419.78;;;10.23;100.00
11345;BME280;5727;42.600;23.028;2024-02-23T07:40:47;93407.88;;;10.26;100.00
11345;BME280;5727;42.600;23.028;2024-02-23T07:43:14;93411.69;;;10.28;100.00
11345;BME280;5727;42.600;23.028;2024-02-23T07:45:41;93413.94;;;10.42;100.00
11345;BME280;5727;42.600;23.028;2024-02-23T07:48:09;93419.50;;;10.52;100.00
11345;BME280;5727;42.600;23.028;2024-02-23T07:50:35;93406.06;;;10.66;100.00
11345;BME280;5727;42.600;23.028;2024-02-23T07:53:03;93408.94;;;10.76;100.00
11345;BME280;5727;42.600;23.028;2024-02-23T07:55:32;93415.22;;;10.87;100.00
11345;BME280;5727;42.600;23.028;2024-02-23T07:57:59;93415.91;;;10.84;100.00
11345;BME280;5727;42.600;23.028;2024-02-23T08:00:27;93405.00;;;10.82;100.00
11345;BME280;5727;42.600;23.028;2024-02-23T08:02:54;93419.16;;;10.93;100.00
11345;BME280;5727;42.600;23.028;2024-02-23T08:05:22;93421.75;;;10.93;100.00
11345;BME280;5727;42.600;23.028;2024-02-23T08:07:49;93416.91;;;11.07;100.00
11345;BME280;5727;42.600;23.028;2024-02-23T08:10:16;93415.31;;;11.19;100.00
11345;BME280;5727;42.600;23.028;2024-02-23T08:12:45;93420.34;;;11.24;100.00
11345;BME280;5727;42.600;23.028;2024-02-23T08:15:12;93423.03;;;11.27;100.00
11345;BME280;5727;42.600;23.028;2024-02-23T08:17:39;93422.66;;;11.13;100.00
11345;BME280;5727;42.600;23.028;2024-02-23T08:20:07;93424.69;;;11.04;100.00
11345;BME280;5727;42.600;23.028;2024-02-23T08:22:34;93419.81;;;10.90;100.00
11345;BME280;5727;42.600;23.028;2024-02-23T08:25:01;93430.88;;;11.12;100.00
11345;BME280;5727;42.600;23.028;2024-02-23T08:27:28;93420.09;;;11.29;100.00
11345;BME280;5727;42.600;23.028;2024-02-23T08:29:56;93411.31;;;11.37;100.00
11345;BME280;5727;42.600;23.028;2024-02-23T08:32:23;93417.84;;;11.43;99.31
11345;BME280;5727;42.600;23.028;2024-02-23T08:34:50;93407.41;;;11.46;98.96
11345;BME280;5727;42.600;23.028;2024-02-23T08:37:18;93412.59;;;11.58;98.74
11345;BME280;5727;42.600;23.028;2024-02-23T08:39:45;93418.28;;;11.76;97.63
11345;BME280;5727;42.600;23.028;2024-02-23T08:42:12;93413.13;;;11.79;95.07
11345;BME280;5727;42.600;23.028;2024-02-23T08:44:39;93412.94;;;11.88;94.30
11345;BME280;5727;42.600;23.028;2024-02-23T08:47:08;93414.56;;;12.08;93.92
11345;BME280;5727;42.600;23.028;2024-02-23T08:49:35;93402.41;;;12.19;92.21
11345;BME280;5727;42.600;23.028;2024-02-23T08:52:02;93407.56;;;12.31;92.15
11345;BME280;5727;42.600;23.028;2024-02-23T08:54:29;93408.66;;;12.30;91.38
11345;BME280;5727;42.600;23.028;2024-02-23T08:56:56;93412.94;;;12.04;91.93
11345;BME280;5727;42.600;23.028;2024-02-23T08:59:23;93416.06;;;12.09;93.27
11345;BME280;5727;42.600;23.028;2024-02-23T09:01:50;93417.81;;;12.21;92.33
11345;BME280;5727;42.600;23.028;2024-02-23T09:04:18;93406.44;;;12.32;92.40
11345;BME280;5727;42.600;23.028;2024-02-23T09:06:45;93412.44;;;12.48;92.34
11345;BME280;5727;42.600;23.028;2024-02-23T09:09:14;93414.00;;;12.53;89.38
11345;BME280;5727;42.600;23.028;2024-02-23T09:11:42;93410.91;;;12.66;89.46
11345;BME280;5727;42.600;23.028;2024-02-23T09:14:09;93405.53;;;12.78;87.64
11345;BME280;5727;42.600;23.028;2024-02-23T09:16:36;93404.72;;;12.74;87.53
11345;BME280;5727;42.600;23.028;2024-02-23T09:19:02;93402.91;;;12.78;85.09
11345;BME280;5727;42.600;23.028;2024-02-23T09:21:31;93414.94;;;12.79;86.28
11345;BME280;5727;42.600;23.028;2024-02-23T09:23:58;93413.44;;;12.98;85.12
11345;BME280;5727;42.600;23.028;2024-02-23T09:26:25;93406.59;;;13.12;85.68
11345;BME280;5727;42.600;23.028;2024-02-23T09:28:54;93410.81;;;13.17;84.57
11345;BME280;5727;42.600;23.028;2024-02-23T09:31:21;93403.59;;;13.33;84.21
11345;BME280;5727;42.600;23.028;2024-02-23T09:33:48;93413.84;;;13.19;83.54
11345;BME280;5727;42.600;23.028;2024-02-23T09:36:16;93422.28;;;13.28;83.85
11345;BME280;5727;42.600;23.028;2024-02-23T09:38:44;93410.63;;;13.48;83.23
11345;BME280;5727;42.600;23.028;2024-02-23T09:41:19;93414.53;;;13.35;80.87
11345;BME280;5727;42.600;23.028;2024-02-23T09:43:46;93413.69;;;13.50;80.77
11345;BME280;5727;42.600;23.028;2024-02-23T09:46:15;93405.16;;;13.37;79.81
11345;BME280;5727;42.600;23.028;2024-02-23T09:48:43;93408.41;;;13.50;80.21
11345;BME280;5727;42.600;23.028;2024-02-23T09:51:10;93403.31;;;13.60;79.20
11345;BME280;5727;42.600;23.028;2024-02-23T09:53:38;93395.78;;;13.59;78.06
11345;BME280;5727;42.600;23.028;2024-02-23T09:56:09;93394.13;;;13.51;77.44
11345;BME280;5727;42.600;23.028;2024-02-23T09:58:36;93390.50;;;13.59;76.18
11345;BME280;5727;42.600;23.028;2024-02-23T10:01:03;93395.97;;;13.69;76.23
11345;BME280;5727;42.600;23.028;2024-02-23T10:03:31;93388.47;;;13.71;76.14
11345;BME280;5727;42.600;23.028;2024-02-23T10:05:58;93396.13;;;13.80;76.33
11345;BME280;5727;42.600;23.028;2024-02-23T10:08:26;93391.97;;;13.79;74.08
11345;BME280;5727;42.600;23.028;2024-02-23T10:10:54;93393.78;;;13.75;74.52
11345;BME280;5727;42.600;23.028;2024-02-23T10:13:23;93380.25;;;13.99;73.98
11345;BME280;5727;42.600;23.028;2024-02-23T10:15:51;93392.00;;;14.05;73.03
11345;BME280;5727;42.600;23.028;2024-02-23T10:18:18;93380.88;;;14.15;72.97
11345;BME280;5727;42.600;23.028;2024-02-23T10:20:45;93372.69;;;14.24;73.63
11345;BME280;5727;42.600;23.028;2024-02-23T10:23:12;93374.31;;;14.06;73.07
11345;BME280;5727;42.600;23.028;2024-02-23T10:25:39;93375.97;;;13.91;72.73
11345;BME280;5727;42.600;23.028;2024-02-23T10:28:06;93389.34;;;13.79;74.30
11345;BME280;5727;42.600;23.028;2024-02-23T10:30:37;93385.28;;;13.85;74.93
11345;BME280;5727;42.600;23.028;2024-02-23T10:33:05;93364.78;;;13.98;74.02
11345;BME280;5727;42.600;23.028;2024-02-23T10:35:33;93370.16;;;14.05;72.11
11345;BME280;5727;42.600;23.028;2024-02-23T10:38:08;93357.03;;;14.08;72.49
11345;BME280;5727;42.600;23.028;2024-02-23T10:40:39;93365.00;;;14.12;70.91
11345;BME280;5727;42.600;23.028;2024-02-23T10:43:12;93367.44;;;13.98;72.08
11345;BME280;5727;42.600;23.028;2024-02-23T10:45:41;93360.88;;;14.14;73.09
11345;BME280;5727;42.600;23.028;2024-02-23T10:48:09;93348.53;;;14.18;71.82
11345;BME280;5727;42.600;23.028;2024-02-23T10:50:37;93355.41;;;14.26;72.52
11345;BME280;5727;42.600;23.028;2024-02-23T10:53:07;93338.22;;;14.32;72.09
11345;BME280;5727;42.600;23.028;2024-02-23T10:55:36;93343.56;;;14.39;71.95
11345;BME280;5727;42.600;23.028;2024-02-23T10:58:04;93326.25;;;14.38;68.73
11345;BME280;5727;42.600;23.028;2024-02-23T11:00:36;93325.31;;;14.53;68.36
11345;BME280;5727;42.600;23.028;2024-02-23T11:03:06;93324.34;;;14.68;67.79
11345;BME280;5727;42.600;23.028;2024-02-23T11:05:33;93328.88;;;14.72;66.91
11345;BME280;5727;42.600;23.028;2024-02-23T11:08:00;93315.38;;;14.73;64.94
11345;BME280;5727;42.600;23.028;2024-02-23T11:10:27;93324.34;;;14.68;64.82
11345;BME280;5727;42.600;23.028;2024-02-23T11:12:58;93322.28;;;14.85;66.80
11345;BME280;5727;42.600;23.028;2024-02-23T11:15:29;93312.75;;;15.10;64.42
11345;BME280;5727;42.600;23.028;2024-02-23T11:18:00;93311.28;;;15.16;64.30
11345;BME280;5727;42.600;23.028;2024-02-23T11:20:37;93303.63;;;15.04;63.96
11345;BME280;5727;42.600;23.028;2024-02-23T11:23:13;93302.75;;;14.93;63.38
11345;BME280;5727;42.600;23.028;2024-02-23T11:25:40;93289.50;;;14.86;63.24
11345;BME280;5727;42.600;23.028;2024-02-23T11:28:07;93293.47;;;14.69;63.85
11345;BME280;5727;42.600;23.028;2024-02-23T11:30:34;93289.81;;;14.77;65.13
11345;BME280;5727;42.600;23.028;2024-02-23T11:33:01;93306.78;;;14.83;65.08
11345;BME280;5727;42.600;23.028;2024-02-23T11:35:28;93305.94;;;14.72;64.26
11345;BME280;5727;42.600;23.028;2024-02-23T11:37:57;93275.16;;;14.83;64.22
11345;BME280;5727;42.600;23.028;2024-02-23T11:40:26;93291.91;;;14.98;61.32
11345;BME280;5727;42.600;23.028;2024-02-23T11:42:54;93289.44;;;15.15;61.17
11345;BME280;5727;42.600;23.028;2024-02-23T11:45:22;93283.38;;;15.15;59.66
11345;BME280;5727;42.600;23.028;2024-02-23T11:47:50;93285.16;;;15.04;60.32
11345;BME280;5727;42.600;23.028;2024-02-23T11:50:17;93282.25;;;15.16;61.29
11345;BME280;5727;42.600;23.028;2024-02-23T11:52:46;93276.00;;;15.31;60.17
11345;BME280;5727;42.600;23.028;2024-02-23T11:55:18;93261.03;;;15.42;59.79
11345;BME280;5727;42.600;23.028;2024-02-23T11:57:48;93266.75;;;15.54;57.93
11345;BME280;5727;42.600;23.028;2024-02-23T12:00:15;93264.19;;;15.62;58.07
11345;BME280;5727;42.600;23.028;2024-02-23T12:02:43;93277.56;;;15.86;57.83
11345;BME280;5727;42.600;23.028;2024-02-23T12:05:11;93268.09;;;15.85;56.92
11345;BME280;5727;42.600;23.028;2024-02-23T12:07:38;93263.97;;;15.84;56.11
11345;BME280;5727;42.600;23.028;2024-02-23T12:10:06;93256.06;;;15.91;56.85
11345;BME280;5727;42.600;23.028;2024-02-23T12:12:35;93259.97;;;16.11;56.95
11345;BME280;5727;42.600;23.028;2024-02-23T12:15:02;93251.38;;;16.28;53.63
11345;BME280;5727;42.600;23.028;2024-02-23T12:17:29;93247.56;;;16.29;51.86
11345;BME280;5727;42.600;23.028;2024-02-23T12:19:58;93247.16;;;16.20;51.69
11345;BME280;5727;42.600;23.028;2024-02-23T12:22:26;93252.34;;;15.99;49.79
11345;BME280;5727;42.600;23.028;2024-02-23T12:24:53;93232.38;;;16.05;48.33
11345;BME280;5727;42.600;23.028;2024-02-23T12:27:20;93242.47;;;15.86;47.63
11345;BME280;5727;42.600;23.028;2024-02-23T12:29:52;93253.03;;;15.86;47.73
11345;BME280;5727;42.600;23.028;2024-02-23T12:32:20;93252.66;;;15.87;47.73
11345;BME280;5727;42.600;23.028;2024-02-23T12:34:48;93237.75;;;16.26;48.09
11345;BME280;5727;42.600;23.028;2024-02-23T12:37:15;93240.09;;;16.38;45.62
11345;BME280;5727;42.600;23.028;2024-02-23T12:39:42;93241.00;;;16.99;44.22
11345;BME280;5727;42.600;23.028;2024-02-23T12:42:10;93252.75;;;17.05;42.19
11345;BME280;5727;42.600;23.028;2024-02-23T12:44:37;93237.56;;;16.70;43.19
11345;BME280;5727;42.600;23.028;2024-02-23T12:47:05;93238.38;;;17.02;42.53
11345;BME280;5727;42.600;23.028;2024-02-23T12:49:32;93236.13;;;17.22;42.39
11345;BME280;5727;42.600;23.028;2024-02-23T12:51:59;93234.63;;;17.56;41.59
11345;BME280;5727;42.600;23.028;2024-02-23T12:54:27;93230.09;;;17.53;40.46
11345;BME280;5727;42.600;23.028;2024-02-23T12:56:54;93227.06;;;17.65;40.99
11345;BME280;5727;42.600;23.028;2024-02-23T12:59:22;93229.72;;;17.55;40.15
11345;BME280;5727;42.600;23.028;2024-02-23T13:01:49;93233.09;;;17.09;41.10